createdAt,value
2023-03-15T00:02:02.967Z,94830.00
2023-03-15T00:06:07.995Z,94833.00
2023-03-15T00:10:12.116Z,94841.00
2023-03-15T00:14:14.928Z,94851.00
2023-03-15T00:18:19.214Z,94848.00
2023-03-15T00:22:23.958Z,94844.00
2023-03-15T00:26:26.821Z,94847.00
2023-03-15T00:30:29.768Z,94850.00
2023-03-15T00:34:33.714Z,94849.00
2023-03-15T00:38:40.152Z,94858.00
2023-03-15T00:42:49.957Z,94867.00
2023-03-15T00:46:52.910Z,94915.00
2023-03-15T00:51:03.789Z,94927.00
2023-03-15T00:55:14.268Z,94932.00
2023-03-15T00:59:17.330Z,94926.00
2023-03-15T01:03:20.800Z,94914.00
2023-03-15T01:07:23.679Z,94907.00
2023-03-15T01:11:29.152Z,94891.00
2023-03-15T01:15:32.558Z,94892.00
2023-03-15T01:19:35.689Z,94888.00
2023-03-15T01:23:38.837Z,94875.00
2023-03-15T01:27:43.053Z,94862.00
2023-03-15T01:31:45.948Z,94889.00
2023-03-15T01:35:49.235Z,94895.00
2023-03-15T01:39:52.417Z,94899.00
2023-03-15T01:43:56.797Z,94890.00
2023-03-15T01:47:59.932Z,94888.00
2023-03-15T01:52:07.912Z,94893.00
2023-03-15T01:56:18.030Z,94907.00
2023-03-15T02:00:23.020Z,94909.00
2023-03-15T02:04:37.367Z,94905.00
2023-03-15T02:08:44.616Z,94918.00
2023-03-15T02:12:51.274Z,94922.00
2023-03-15T02:16:56.268Z,94936.00
2023-03-15T02:21:05.779Z,94946.00
2023-03-15T02:25:15.642Z,94946.00
2023-03-15T02:29:20.136Z,94958.00
2023-03-15T02:33:26.504Z,94966.00
2023-03-15T02:37:29.420Z,94969.00
2023-03-15T02:41:35.755Z,94990.00
2023-03-15T02:45:40.563Z,95018.00
2023-03-15T02:49:45.931Z,95026.00
2023-03-15T02:53:49.074Z,95041.00
2023-03-15T02:57:52.026Z,95055.00
2023-03-15T03:01:57.152Z,95078.00
2023-03-15T03:06:00.246Z,95079.00
2023-03-15T03:10:03.821Z,95108.00
2023-03-15T03:14:15.826Z,95118.00
2023-03-15T03:18:21.139Z,95123.00
2023-03-15T03:22:24.550Z,95142.00
2023-03-15T03:26:28.034Z,95157.00
2023-03-15T03:30:32.119Z,95176.00
2023-03-15T03:34:37.020Z,95185.00
2023-03-15T03:38:41.525Z,95212.00
2023-03-15T03:42:44.726Z,95198.00
2023-03-15T03:46:48.309Z,95225.00
2023-03-15T03:50:52.666Z,95236.00
2023-03-15T03:54:55.581Z,95247.00
2023-03-15T03:58:58.484Z,95254.00
2023-03-15T04:03:13.588Z,95265.00
2023-03-15T04:07:22.982Z,95258.00
2023-03-15T04:11:27.030Z,95288.00
2023-03-15T04:15:36.811Z,95292.00
2023-03-15T04:19:40.478Z,95303.00
2023-03-15T04:23:46.313Z,95315.00
2023-03-15T04:28:10.649Z,95313.00
2023-03-15T04:32:28.907Z,95327.00
2023-03-15T04:36:48.777Z,95332.00
2023-03-15T04:41:11.190Z,95335.00
2023-03-15T04:45:24.436Z,95353.00
2023-03-15T04:49:45.649Z,95360.00
2023-03-15T04:54:14.434Z,95363.00
2023-03-15T04:58:32.889Z,95372.00
2023-03-15T05:02:36.046Z,95374.00
2023-03-15T05:07:01.914Z,95388.00
2023-03-15T05:11:18.877Z,95398.00
2023-03-15T05:15:52.032Z,95397.00
2023-03-15T05:20:29.961Z,95401.00
2023-03-15T05:24:51.252Z,95410.00
2023-03-15T05:29:06.101Z,95419.00
2023-03-15T05:33:29.629Z,95425.00
2023-03-15T05:38:03.587Z,95429.00
2023-03-15T05:42:26.394Z,95447.00
2023-03-15T05:46:48.065Z,95449.00
2023-03-15T05:51:13.169Z,95460.00
2023-03-15T05:55:54.462Z,95466.00
2023-03-15T06:00:17.123Z,95470.00
2023-03-15T06:04:23.763Z,95485.00
2023-03-15T06:08:30.480Z,95482.00
2023-03-15T06:12:33.591Z,95492.00
2023-03-15T06:16:37.106Z,95506.00
2023-03-15T06:20:40.715Z,95512.00
2023-03-15T06:24:49.505Z,95517.00
2023-03-15T06:28:52.714Z,95525.00
2023-03-15T06:32:55.925Z,95523.00
2023-03-15T06:36:59.064Z,95526.00
2023-03-15T06:41:05.069Z,95535.00
2023-03-15T06:45:11.335Z,95534.00
2023-03-15T06:49:14.719Z,95532.00
2023-03-15T06:53:17.849Z,95534.00
2023-03-15T06:57:22.480Z,95537.00
2023-03-15T07:01:25.369Z,95544.00
2023-03-15T07:05:28.318Z,95548.00
2023-03-15T07:09:31.098Z,95542.00
2023-03-15T07:13:35.297Z,95564.00
2023-03-15T07:17:38.142Z,95568.00
2023-03-15T07:21:41.048Z,95594.00
2023-03-15T07:25:54.466Z,95590.00
2023-03-15T07:29:59.130Z,95611.00
2023-03-15T07:34:02.006Z,95606.00
2023-03-15T07:38:04.767Z,95614.00
2023-03-15T07:42:08.157Z,95615.00
2023-03-15T07:46:18.497Z,95630.00
2023-03-15T07:50:21.515Z,95627.00
2023-03-15T07:54:24.308Z,95623.00
2023-03-15T07:58:27.159Z,95630.00
2023-03-15T08:02:31.340Z,95627.00
2023-03-15T08:06:34.108Z,95629.00
2023-03-15T08:10:37.058Z,95632.00
2023-03-15T08:14:39.913Z,95632.00
2023-03-15T08:18:44.079Z,95624.00
2023-03-15T08:22:47.387Z,95642.00
2023-03-15T08:26:51.183Z,95630.00
2023-03-15T08:30:54.117Z,95642.00
2023-03-15T08:34:58.360Z,95641.00
2023-03-15T08:39:01.213Z,95628.00
2023-03-15T08:43:04.113Z,95628.00
2023-03-15T08:47:06.994Z,95623.00
2023-03-15T08:51:11.690Z,95635.00
2023-03-15T08:55:14.717Z,95631.00
2023-03-15T08:59:29.153Z,95645.00
2023-03-15T09:03:34.323Z,95637.00
2023-03-15T09:07:39.757Z,95643.00
2023-03-15T09:11:42.571Z,95630.00
2023-03-15T09:15:45.400Z,95645.00
2023-03-15T09:19:48.157Z,95647.00
2023-03-15T09:23:52.503Z,95648.00
2023-03-15T09:27:55.743Z,95650.00
2023-03-15T09:31:58.489Z,95659.00
2023-03-15T09:36:01.378Z,95653.00
2023-03-15T09:40:07.924Z,95646.00
2023-03-15T09:44:18.256Z,95661.00
2023-03-15T09:48:25.444Z,95665.00
2023-03-15T09:52:36.728Z,95672.00
2023-03-15T09:56:45.624Z,95679.00
2023-03-15T10:00:53.478Z,95685.00
2023-03-15T10:05:02.350Z,95691.00
2023-03-15T10:09:13.823Z,95694.00
2023-03-15T10:13:32.758Z,95693.00
2023-03-15T10:17:43.093Z,95692.00
2023-03-15T10:21:56.321Z,95694.00
2023-03-15T10:25:59.337Z,95693.00
2023-03-15T10:30:14.126Z,95697.00
2023-03-15T10:34:17.932Z,95693.00
2023-03-15T10:38:21.474Z,95700.00
2023-03-15T10:42:34.190Z,95696.00
2023-03-15T10:46:39.146Z,95683.00
2023-03-15T10:50:41.993Z,95689.00
2023-03-15T10:54:44.991Z,95691.00
2023-03-15T10:59:02.291Z,95689.00
2023-03-15T11:03:19.463Z,95691.00
2023-03-15T11:07:22.670Z,95691.00
2023-03-15T11:11:25.514Z,95697.00
2023-03-15T11:15:28.343Z,95695.00
2023-03-15T11:19:35.534Z,95700.00
2023-03-15T11:23:40.715Z,95686.00
2023-03-15T11:27:47.062Z,95685.00
2023-03-15T11:31:51.878Z,95695.00
2023-03-15T11:35:58.814Z,95687.00
2023-03-15T11:40:11.785Z,95694.00
2023-03-15T11:44:23.095Z,95689.00
2023-03-15T11:48:29.847Z,95686.00
2023-03-15T11:52:34.141Z,95694.00
2023-03-15T11:56:47.265Z,95679.00
2023-03-15T12:00:54.789Z,95672.00
2023-03-15T12:05:01.787Z,95679.00
2023-03-15T12:09:48.168Z,95670.00
2023-03-15T12:14:04.035Z,95671.00
2023-03-15T12:18:07.379Z,95669.00
2023-03-15T12:22:16.480Z,95667.00
2023-03-15T12:26:42.393Z,95650.00
2023-03-15T12:30:46.667Z,95649.00
2023-03-15T12:34:51.295Z,95649.00
2023-03-15T12:39:04.338Z,95641.00
2023-03-15T12:43:09.145Z,95638.00
2023-03-15T12:47:13.039Z,95629.00
2023-03-15T12:51:57.385Z,95645.00
2023-03-15T12:56:27.855Z,95638.00
2023-03-15T13:00:32.839Z,95644.00
2023-03-15T13:04:35.989Z,95633.00
2023-03-15T13:08:47.543Z,95636.00
2023-03-15T13:12:56.954Z,95626.00
2023-03-15T13:17:07.436Z,95642.00
2023-03-15T13:21:19.430Z,95625.00
2023-03-15T13:25:30.647Z,95634.00
2023-03-15T13:29:34.466Z,95625.00
2023-03-15T13:33:37.450Z,95641.00
2023-03-15T13:37:45.047Z,95626.00
2023-03-15T13:41:49.286Z,95630.00
2023-03-15T13:45:52.126Z,95636.00
2023-03-15T13:49:54.950Z,95627.00
2023-03-15T13:54:03.073Z,95627.00
2023-03-15T13:58:10.531Z,95626.00
2023-03-15T14:02:17.252Z,95626.00
2023-03-15T14:06:24.260Z,95635.00
2023-03-15T14:10:30.958Z,95618.00
2023-03-15T14:14:38.446Z,95630.00
2023-03-15T14:18:42.943Z,95642.00
2023-03-15T14:22:46.032Z,95633.00
2023-03-15T14:26:53.715Z,95642.00
2023-03-15T14:31:02.364Z,95631.00
2023-03-15T14:35:07.989Z,95632.00
2023-03-15T14:39:19.773Z,95618.00
2023-03-15T14:43:22.596Z,95620.00
2023-03-15T14:47:26.854Z,95621.00
2023-03-15T14:51:30.435Z,95615.00
2023-03-15T14:55:35.042Z,95609.00
2023-03-15T14:59:37.801Z,95618.00
2023-03-15T15:03:44.813Z,95609.00
2023-03-15T15:07:47.638Z,95616.00
2023-03-15T15:11:51.387Z,95615.00
2023-03-15T15:15:56.543Z,95614.00
2023-03-15T15:20:00.972Z,95618.00
2023-03-15T15:24:05.370Z,95605.00
2023-03-15T15:28:08.232Z,95620.00
2023-03-15T15:32:11.039Z,95618.00
2023-03-15T15:36:26.860Z,95628.00
2023-03-15T15:40:31.651Z,95621.00
2023-03-15T15:44:34.444Z,95630.00
2023-03-15T15:48:37.255Z,95631.00
2023-03-15T15:52:46.450Z,95635.00
2023-03-15T15:56:51.718Z,95648.00
2023-03-15T16:00:54.486Z,95647.00
2023-03-15T16:04:57.549Z,95641.00
2023-03-15T16:09:02.036Z,95659.00
2023-03-15T16:13:05.589Z,95644.00
2023-03-15T16:17:12.355Z,95660.00
2023-03-15T16:21:18.070Z,95670.00
2023-03-15T16:25:26.393Z,95672.00
2023-03-15T16:29:36.445Z,95687.00
2023-03-15T16:33:39.229Z,95694.00
2023-03-15T16:37:43.130Z,95700.00
2023-03-15T16:41:47.292Z,95702.00
2023-03-15T16:45:50.131Z,95703.00
2023-03-15T16:49:52.918Z,95720.00
2023-03-15T16:54:08.541Z,95716.00
2023-03-15T16:58:20.808Z,95710.00
2023-03-15T17:02:25.668Z,95727.00
2023-03-15T17:06:29.192Z,95741.00
2023-03-15T17:10:33.343Z,95743.00
2023-03-15T17:14:38.808Z,95765.00
2023-03-15T17:18:42.991Z,95781.00
2023-03-15T17:22:45.905Z,95773.00
2023-03-15T17:26:48.835Z,95778.00
2023-03-15T17:30:59.588Z,95773.00
2023-03-15T17:35:13.583Z,95776.00
2023-03-15T17:39:17.837Z,95780.00
2023-03-15T17:43:20.639Z,95772.00
2023-03-15T17:47:24.813Z,95780.00
2023-03-15T17:51:30.194Z,95793.00
2023-03-15T17:55:34.881Z,95789.00
2023-03-15T17:59:37.830Z,95793.00
2023-03-15T18:03:43.637Z,95789.00
2023-03-15T18:07:58.262Z,95791.00
2023-03-15T18:12:02.315Z,95808.00
2023-03-15T18:16:05.320Z,95819.00
2023-03-15T18:20:12.203Z,95815.00
2023-03-15T18:24:15.026Z,95820.00
2023-03-15T18:28:17.823Z,95828.00
2023-03-15T18:32:21.037Z,95836.00
2023-03-15T18:36:25.125Z,95836.00
2023-03-15T18:40:30.680Z,95842.00
2023-03-15T18:44:33.513Z,95842.00
2023-03-15T18:48:40.885Z,95839.00
2023-03-15T18:52:46.146Z,95852.00
2023-03-15T18:56:49.211Z,95850.00
2023-03-15T19:00:51.995Z,95849.00
2023-03-15T19:04:58.375Z,95861.00
2023-03-15T19:09:02.367Z,95862.00
2023-03-15T19:13:05.178Z,95869.00
2023-03-15T19:17:08.303Z,95869.00
2023-03-15T19:21:11.539Z,95872.00
2023-03-15T19:25:15.839Z,95873.00
2023-03-15T19:29:18.669Z,95872.00
2023-03-15T19:33:21.443Z,95870.00
2023-03-15T19:37:24.631Z,95880.00
2023-03-15T19:41:28.777Z,95868.00
2023-03-15T19:45:31.670Z,95877.00
2023-03-15T19:49:34.788Z,95883.00
2023-03-15T19:53:37.852Z,95892.00
2023-03-15T19:57:42.201Z,95888.00
2023-03-15T20:01:45.112Z,95888.00
2023-03-15T20:05:48.181Z,95897.00
2023-03-15T20:09:50.941Z,95893.00
2023-03-15T20:13:55.458Z,95906.00
2023-03-15T20:17:58.245Z,95904.00
2023-03-15T20:22:03.049Z,95917.00
2023-03-15T20:26:09.892Z,95920.00
2023-03-15T20:30:16.840Z,95917.00
2023-03-15T20:34:20.474Z,95927.00
2023-03-15T20:38:23.371Z,95919.00
2023-03-15T20:42:26.282Z,95931.00
2023-03-15T20:46:31.139Z,95926.00
2023-03-15T20:50:34.257Z,95934.00
2023-03-15T20:54:40.258Z,95934.00
2023-03-15T20:58:43.127Z,95937.00
2023-03-15T21:02:47.848Z,95937.00
2023-03-15T21:06:50.795Z,95935.00
2023-03-15T21:10:53.957Z,95937.00
2023-03-15T21:14:56.801Z,95932.00
2023-03-15T21:19:01.557Z,95930.00
2023-03-15T21:23:06.462Z,95924.00
2023-03-15T21:27:11.269Z,95929.00
2023-03-15T21:31:15.390Z,95933.00
2023-03-15T21:35:22.095Z,95932.00
2023-03-15T21:39:24.969Z,95937.00
2023-03-15T21:43:28.443Z,95939.00
2023-03-15T21:47:31.486Z,95939.00
2023-03-15T21:51:35.702Z,95926.00
2023-03-15T21:55:38.617Z,95931.00
2023-03-15T21:59:41.699Z,95929.00
2023-03-15T22:03:44.533Z,95923.00
2023-03-15T22:07:49.042Z,95925.00
2023-03-15T22:11:51.788Z,95923.00
2023-03-15T22:15:54.988Z,95932.00
2023-03-15T22:19:57.791Z,95930.00
2023-03-15T22:24:02.066Z,95924.00
2023-03-15T22:28:04.838Z,95929.00
2023-03-15T22:32:07.672Z,95928.00
2023-03-15T22:36:10.867Z,95932.00
2023-03-15T22:40:15.393Z,95924.00
2023-03-15T22:44:18.282Z,95928.00
2023-03-15T22:48:21.169Z,95932.00
2023-03-15T22:52:23.992Z,95932.00
2023-03-15T22:56:28.219Z,95932.00
2023-03-15T23:00:30.998Z,95925.00
2023-03-15T23:04:33.936Z,95927.00
2023-03-15T23:08:36.853Z,95933.00
2023-03-15T23:12:41.487Z,95930.00
2023-03-15T23:16:44.325Z,95932.00
2023-03-15T23:20:47.186Z,95928.00
2023-03-15T23:24:49.956Z,95944.00
2023-03-15T23:28:54.279Z,95937.00
2023-03-15T23:32:58.813Z,95936.00
2023-03-15T23:37:01.727Z,95940.00
2023-03-15T23:41:05.152Z,95939.00
2023-03-15T23:45:10.944Z,95933.00
2023-03-15T23:49:13.858Z,95931.00
2023-03-15T23:53:16.608Z,95942.00
2023-03-15T23:57:19.399Z,95933.00
